Detall de PIREP

Printer-friendly versionPDF version

[2012/06/17 10:08:00]
Flight IATA:CT1004
Pilot Number:042
Company ICAO:CAT
Aircraft Type:B738/F
PAX:92
Departing Airport: LFMP
Destination Airport: LEVC
Alternate Airport:LEPA
Online: VATSIM
Route:BGR UN975 BCN UM985 SOPET
Flight Level:F330
No Slew and time accel
No pause
Crash detect
Detect pilot in Cockpit between each 30 and 45 minutes
10:08 Zero fuel Weight: 118700 Lbs, Fuel Weight: 46051 Lbs
10:08 VATSIM:LFMP 171000Z 10010KT 080V140 9999 FEW050 27/16 Q1019 NOSIG
10:08 VATSIM:LEVC 171000Z 07009KT 030V110 9999 SCT012 BKN019 25/18 Q1020 NOSIG
10:08 VOICE CATALONIAN/FLAMA DEL CANIGO
10:17 Parking Brakes off
10:23 Take-off
10:23 Take off Weight: 163851 Lbs
10:23 Wind: 105º @ 010 Knots Heading: 144º
10:23 POS N42º 43´ 59´´ E002º 52´ 46´´
10:23 Flaps:4 at 179 Knots
10:23 Gear Up: 178 Knots
10:24 Flaps:3 at 170 Knots
10:24 Flaps:2 at 192 Knots
10:25 Flaps:1 at 212 Knots
10:25 Flaps:0 at 222 Knots
10:38 Wind:185º@012 Knots Heading: 230º Ground Speed: 441 Knots Altitude 26417 ft
10:45 TOC
10:45 Fuel Weight: 40743 Lb
10:53 Wind:129º@025 Knots Heading: 223º Ground Speed: 465 Knots Altitude 33192 ft
10:56 TOD
10:56 Fuel Weight: 39644 Lb
11:02 Flaps:1 at 232 Knots
11:03 Flaps:2 at 231 Knots
11:04 Flaps:3 at 241 Knots
11:07 Flaps:4 at 226 Knots
11:08 Wind:080º@023 Knots Heading: 273º Ground Speed: 280 Knots Altitude 9940 ft
11:15 Gear Down: 179 Knots
11:15 Flaps:5 at 179 Knots
11:17 Flaps:6 at 159 Knots
11:17 Flaps:7 at 151 Knots
11:17 Flaps:8 at 145 Knots
11:20 TouchDown:Rate -345 ft/min Speed: 127 Knots
11:20 VATSIM:LEVC 171100Z 07010KT 030V100 9999 FEW014 BKN020 25/18 Q1019 NOSIG
11:20 Land
11:20 Wind:074º@010 Knots
11:20 Heading: 120º
11:20 Flight Duration: 00:57
11:20 Landing Weight: 156703 Lbs
11:20 POS N39º 29´ 26´´ W000º 29´ 07´´
11:23 Parking brakes on
11:23 Block to Block Duration: 01:06
11:23 Final Fuel: 37773 Lbls
11:23 Spent Fuel: 8278 Lbls
11:23 Flight Length: 335 NM
11:23 TOD Land Length: 110 NM

Exportar CSV

Powered by Drupal - Modified by Danger4k